sensor_id;sensor_type;location;lat;lon;timestamp;temperature;humidity
31729;DHT22;18309;43.658;1.312;2024-02-21T00:00:48;9.10;99.90
31729;DHT22;18309;43.658;1.312;2024-02-21T00:03:13;9.10;99.90
31729;DHT22;18309;43.658;1.312;2024-02-21T00:05:39;9.00;99.90
31729;DHT22;18309;43.658;1.312;2024-02-21T00:08:05;9.00;99.90
31729;DHT22;18309;43.658;1.312;2024-02-21T00:10:30;9.00;99.90
31729;DHT22;18309;43.658;1.312;2024-02-21T00:13:00;9.00;99.90
31729;DHT22;18309;43.658;1.312;2024-02-21T00:15:26;8.90;99.90
31729;DHT22;18309;43.658;1.312;2024-02-21T00:17:52;8.90;99.90
31729;DHT22;18309;43.658;1.312;2024-02-21T00:20:17;8.90;99.90
31729;DHT22;18309;43.658;1.312;2024-02-21T00:22:44;8.90;99.90
31729;DHT22;18309;43.658;1.312;2024-02-21T00:25:09;8.90;99.90
31729;DHT22;18309;43.658;1.312;2024-02-21T00:27:35;8.90;99.90
31729;DHT22;18309;43.658;1.312;2024-02-21T00:30:02;8.90;99.90
31729;DHT22;18309;43.658;1.312;2024-02-21T00:32:28;8.90;99.90
31729;DHT22;18309;43.658;1.312;2024-02-21T00:34:53;8.90;99.90
31729;DHT22;18309;43.658;1.312;2024-02-21T00:37:19;8.90;99.90
31729;DHT22;18309;43.658;1.312;2024-02-21T00:39:45;8.80;99.90
31729;DHT22;18309;43.658;1.312;2024-02-21T00:42:11;8.80;99.90
31729;DHT22;18309;43.658;1.312;2024-02-21T00:44:36;8.80;99.90
31729;DHT22;18309;43.658;1.312;2024-02-21T00:47:02;8.80;99.90
31729;DHT22;18309;43.658;1.312;2024-02-21T00:49:28;8.80;99.90
31729;DHT22;18309;43.658;1.312;2024-02-21T00:51:53;8.80;99.90
31729;DHT22;18309;43.658;1.312;2024-02-21T00:54:19;8.80;99.90
31729;DHT22;18309;43.658;1.312;2024-02-21T00:56:45;8.80;99.90
31729;DHT22;18309;43.658;1.312;2024-02-21T00:59:10;8.80;99.90
31729;DHT22;18309;43.658;1.312;2024-02-21T01:01:36;8.70;99.90
31729;DHT22;18309;43.658;1.312;2024-02-21T01:04:02;8.80;99.90
31729;DHT22;18309;43.658;1.312;2024-02-21T01:06:27;8.80;99.90
31729;DHT22;18309;43.658;1.312;2024-02-21T01:08:53;8.80;99.90
31729;DHT22;18309;43.658;1.312;2024-02-21T01:11:19;8.70;99.90
31729;DHT22;18309;43.658;1.312;2024-02-21T01:13:44;8.80;99.90
31729;DHT22;18309;43.658;1.312;2024-02-21T01:16:10;8.80;99.90
31729;DHT22;18309;43.658;1.312;2024-02-21T01:18:39;8.80;99.90
31729;DHT22;18309;43.658;1.312;2024-02-21T01:21:05;8.70;99.90
31729;DHT22;18309;43.658;1.312;2024-02-21T01:23:37;8.70;99.90
31729;DHT22;18309;43.658;1.312;2024-02-21T01:26:05;8.70;99.90
31729;DHT22;18309;43.658;1.312;2024-02-21T01:28:34;8.70;99.90
31729;DHT22;18309;43.658;1.312;2024-02-21T01:30:59;8.70;99.90
31729;DHT22;18309;43.658;1.312;2024-02-21T01:33:25;8.70;99.90
31729;DHT22;18309;43.658;1.312;2024-02-21T01:35:51;8.70;99.90
31729;DHT22;18309;43.658;1.312;2024-02-21T01:38:17;8.70;99.90
31729;DHT22;18309;43.658;1.312;2024-02-21T01:40:42;8.70;99.90
31729;DHT22;18309;43.658;1.312;2024-02-21T01:43:19;8.70;99.90
31729;DHT22;18309;43.658;1.312;2024-02-21T01:45:48;8.70;99.90
31729;DHT22;18309;43.658;1.312;2024-02-21T01:48:15;8.70;99.90
31729;DHT22;18309;43.658;1.312;2024-02-21T01:50:41;8.70;99.90
31729;DHT22;18309;43.658;1.312;2024-02-21T01:53:07;8.60;99.90
31729;DHT22;18309;43.658;1.312;2024-02-21T01:55:33;8.60;99.90
31729;DHT22;18309;43.658;1.312;2024-02-21T01:57:59;8.60;99.90
31729;DHT22;18309;43.658;1.312;2024-02-21T02:00:26;8.60;99.90
31729;DHT22;18309;43.658;1.312;2024-02-21T02:02:52;8.60;99.90
31729;DHT22;18309;43.658;1.312;2024-02-21T02:05:18;8.60;99.90
31729;DHT22;18309;43.658;1.312;2024-02-21T02:07:46;8.60;99.90
31729;DHT22;18309;43.658;1.312;2024-02-21T02:10:12;8.60;99.90
31729;DHT22;18309;43.658;1.312;2024-02-21T02:12:38;8.50;99.90
31729;DHT22;18309;43.658;1.312;2024-02-21T02:15:04;8.40;99.90
31729;DHT22;18309;43.658;1.312;2024-02-21T02:17:30;8.40;99.90
31729;DHT22;18309;43.658;1.312;2024-02-21T02:19:56;8.40;99.90
31729;DHT22;18309;43.658;1.312;2024-02-21T02:22:23;8.40;99.90
31729;DHT22;18309;43.658;1.312;2024-02-21T02:24:52;8.30;99.90
31729;DHT22;18309;43.658;1.312;2024-02-21T02:27:17;8.30;99.90
31729;DHT22;18309;43.658;1.312;2024-02-21T02:29:43;8.30;99.90
31729;DHT22;18309;43.658;1.312;2024-02-21T02:32:09;8.30;99.90
31729;DHT22;18309;43.658;1.312;2024-02-21T02:34:34;8.30;99.90
31729;DHT22;18309;43.658;1.312;2024-02-21T02:37:00;8.20;99.90
31729;DHT22;18309;43.658;1.312;2024-02-21T02:39:25;8.20;99.90
31729;DHT22;18309;43.658;1.312;2024-02-21T02:41:51;8.20;99.90
31729;DHT22;18309;43.658;1.312;2024-02-21T02:44:17;8.20;99.90
31729;DHT22;18309;43.658;1.312;2024-02-21T02:46:42;8.20;99.90
31729;DHT22;18309;43.658;1.312;2024-02-21T02:49:08;8.20;99.90
31729;DHT22;18309;43.658;1.312;2024-02-21T02:51:34;8.20;99.90
31729;DHT22;18309;43.658;1.312;2024-02-21T02:54:00;8.20;99.90
31729;DHT22;18309;43.658;1.312;2024-02-21T02:56:25;8.20;99.90
31729;DHT22;18309;43.658;1.312;2024-02-21T02:58:51;8.10;99.90
31729;DHT22;18309;43.658;1.312;2024-02-21T03:01:17;8.10;99.90
31729;DHT22;18309;43.658;1.312;2024-02-21T03:03:42;8.10;99.90
31729;DHT22;18309;43.658;1.312;2024-02-21T03:06:08;8.10;99.90
31729;DHT22;18309;43.658;1.312;2024-02-21T03:08:34;8.00;99.90
31729;DHT22;18309;43.658;1.312;2024-02-21T03:11:00;8.00;99.90
31729;DHT22;18309;43.658;1.312;2024-02-21T03:13:26;7.90;99.90
31729;DHT22;18309;43.658;1.312;2024-02-21T03:15:51;7.90;99.90
31729;DHT22;18309;43.658;1.312;2024-02-21T03:18:17;7.90;99.90
31729;DHT22;18309;43.658;1.312;2024-02-21T03:20:43;7.90;99.90
31729;DHT22;18309;43.658;1.312;2024-02-21T03:23:08;7.90;99.90
31729;DHT22;18309;43.658;1.312;2024-02-21T03:25:34;7.80;99.90
31729;DHT22;18309;43.658;1.312;2024-02-21T03:28:00;7.80;99.90
31729;DHT22;18309;43.658;1.312;2024-02-21T03:30:25;7.80;99.90
31729;DHT22;18309;43.658;1.312;2024-02-21T03:32:51;7.70;99.90
31729;DHT22;18309;43.658;1.312;2024-02-21T03:35:16;7.70;99.90
31729;DHT22;18309;43.658;1.312;2024-02-21T03:37:44;7.70;99.90
31729;DHT22;18309;43.658;1.312;2024-02-21T03:40:10;7.60;99.90
31729;DHT22;18309;43.658;1.312;2024-02-21T03:42:36;7.60;99.90
31729;DHT22;18309;43.658;1.312;2024-02-21T03:45:02;7.60;99.90
31729;DHT22;18309;43.658;1.312;2024-02-21T03:47:29;7.50;99.90
31729;DHT22;18309;43.658;1.312;2024-02-21T03:49:54;7.50;99.90
31729;DHT22;18309;43.658;1.312;2024-02-21T03:52:20;7.50;99.90
31729;DHT22;18309;43.658;1.312;2024-02-21T03:54:46;7.50;99.90
31729;DHT22;18309;43.658;1.312;2024-02-21T03:57:11;7.40;99.90
31729;DHT22;18309;43.658;1.312;2024-02-21T03:59:37;7.40;99.90
31729;DHT22;18309;43.658;1.312;2024-02-21T04:02:05;7.40;99.90
31729;DHT22;18309;43.658;1.312;2024-02-21T04:04:34;7.40;99.90
31729;DHT22;18309;43.658;1.312;2024-02-21T04:07:02;7.40;99.90
31729;DHT22;18309;43.658;1.312;2024-02-21T04:09:35;7.40;99.90
31729;DHT22;18309;43.658;1.312;2024-02-21T04:12:00;7.40;99.90
31729;DHT22;18309;43.658;1.312;2024-02-21T04:14:26;7.30;99.90
31729;DHT22;18309;43.658;1.312;2024-02-21T04:16:52;7.30;99.90
31729;DHT22;18309;43.658;1.312;2024-02-21T04:19:17;7.30;99.90
31729;DHT22;18309;43.658;1.312;2024-02-21T04:21:43;7.30;99.90
31729;DHT22;18309;43.658;1.312;2024-02-21T04:24:10;7.30;99.90
31729;DHT22;18309;43.658;1.312;2024-02-21T04:26:36;7.20;99.90
31729;DHT22;18309;43.658;1.312;2024-02-21T04:29:01;7.20;99.90
31729;DHT22;18309;43.658;1.312;2024-02-21T04:31:27;7.20;99.90
31729;DHT22;18309;43.658;1.312;2024-02-21T04:33:53;7.20;99.90
31729;DHT22;18309;43.658;1.312;2024-02-21T04:36:18;7.10;99.90
31729;DHT22;18309;43.658;1.312;2024-02-21T04:38:45;7.20;99.90
31729;DHT22;18309;43.658;1.312;2024-02-21T04:41:10;7.10;99.90
31729;DHT22;18309;43.658;1.312;2024-02-21T04:43:36;7.10;99.90
31729;DHT22;18309;43.658;1.312;2024-02-21T04:46:02;7.10;99.90
31729;DHT22;18309;43.658;1.312;2024-02-21T04:48:27;7.10;99.90
31729;DHT22;18309;43.658;1.312;2024-02-21T04:50:53;7.10;99.90
31729;DHT22;18309;43.658;1.312;2024-02-21T04:53:19;7.10;99.90
31729;DHT22;18309;43.658;1.312;2024-02-21T04:55:44;7.00;99.90
31729;DHT22;18309;43.658;1.312;2024-02-21T04:58:10;7.00;99.90
31729;DHT22;18309;43.658;1.312;2024-02-21T05:00:36;7.00;99.90
31729;DHT22;18309;43.658;1.312;2024-02-21T05:03:01;6.90;99.90
31729;DHT22;18309;43.658;1.312;2024-02-21T05:05:27;7.00;99.90
31729;DHT22;18309;43.658;1.312;2024-02-21T05:07:53;7.00;99.90
31729;DHT22;18309;43.658;1.312;2024-02-21T05:10:18;6.90;99.90
31729;DHT22;18309;43.658;1.312;2024-02-21T05:12:45;6.90;99.90
31729;DHT22;18309;43.658;1.312;2024-02-21T05:15:10;6.90;99.90
31729;DHT22;18309;43.658;1.312;2024-02-21T05:17:36;6.90;99.90
31729;DHT22;18309;43.658;1.312;2024-02-21T05:20:02;6.80;99.90
31729;DHT22;18309;43.658;1.312;2024-02-21T05:22:28;6.80;99.90
31729;DHT22;18309;43.658;1.312;2024-02-21T05:24:53;6.90;99.90
31729;DHT22;18309;43.658;1.312;2024-02-21T05:27:19;6.80;99.90
31729;DHT22;18309;43.658;1.312;2024-02-21T05:29:45;6.80;99.90
31729;DHT22;18309;43.658;1.312;2024-02-21T05:32:12;6.80;99.90
31729;DHT22;18309;43.658;1.312;2024-02-21T05:34:37;6.80;99.90
31729;DHT22;18309;43.658;1.312;2024-02-21T05:37:03;6.80;99.90
31729;DHT22;18309;43.658;1.312;2024-02-21T05:39:29;6.80;99.90
31729;DHT22;18309;43.658;1.312;2024-02-21T05:41:55;6.70;99.90
31729;DHT22;18309;43.658;1.312;2024-02-21T05:44:20;6.80;99.90
31729;DHT22;18309;43.658;1.312;2024-02-21T05:46:47;6.80;99.90
31729;DHT22;18309;43.658;1.312;2024-02-21T05:49:13;6.70;99.90
31729;DHT22;18309;43.658;1.312;2024-02-21T05:51:39;6.70;99.90
31729;DHT22;18309;43.658;1.312;2024-02-21T05:54:05;6.80;99.90
31729;DHT22;18309;43.658;1.312;2024-02-21T05:56:32;6.70;99.90
31729;DHT22;18309;43.658;1.312;2024-02-21T05:58:58;6.70;99.90
31729;DHT22;18309;43.658;1.312;2024-02-21T06:01:24;6.70;99.90
31729;DHT22;18309;43.658;1.312;2024-02-21T06:03:49;6.70;99.90
31729;DHT22;18309;43.658;1.312;2024-02-21T06:06:15;6.70;99.90
31729;DHT22;18309;43.658;1.312;2024-02-21T06:08:41;6.80;99.90
31729;DHT22;18309;43.658;1.312;2024-02-21T06:11:07;6.70;99.90
31729;DHT22;18309;43.658;1.312;2024-02-21T06:13:33;6.70;99.90
31729;DHT22;18309;43.658;1.312;2024-02-21T06:15:58;6.70;99.90
31729;DHT22;18309;43.658;1.312;2024-02-21T06:18:24;6.70;99.90
31729;DHT22;18309;43.658;1.312;2024-02-21T06:20:50;6.70;99.90
31729;DHT22;18309;43.658;1.312;2024-02-21T06:23:16;6.60;99.90
31729;DHT22;18309;43.658;1.312;2024-02-21T06:25:44;6.60;99.90
31729;DHT22;18309;43.658;1.312;2024-02-21T06:28:11;6.60;99.90
31729;DHT22;18309;43.658;1.312;2024-02-21T06:30:37;6.60;99.90
31729;DHT22;18309;43.658;1.312;2024-02-21T06:33:03;6.70;99.90
31729;DHT22;18309;43.658;1.312;2024-02-21T06:35:29;6.70;99.90
31729;DHT22;18309;43.658;1.312;2024-02-21T06:37:54;6.70;99.90
31729;DHT22;18309;43.658;1.312;2024-02-21T06:40:22;6.70;99.90
31729;DHT22;18309;43.658;1.312;2024-02-21T06:42:48;6.60;99.90
31729;DHT22;18309;43.658;1.312;2024-02-21T06:45:14;6.60;99.90
31729;DHT22;18309;43.658;1.312;2024-02-21T06:47:39;6.60;99.90
31729;DHT22;18309;43.658;1.312;2024-02-21T06:50:06;6.60;99.90
31729;DHT22;18309;43.658;1.312;2024-02-21T06:52:31;6.60;99.90
31729;DHT22;18309;43.658;1.312;2024-02-21T06:54:57;6.60;99.90
31729;DHT22;18309;43.658;1.312;2024-02-21T06:57:23;6.60;99.90
31729;DHT22;18309;43.658;1.312;2024-02-21T06:59:49;6.50;99.90
31729;DHT22;18309;43.658;1.312;2024-02-21T07:02:14;6.60;99.90
31729;DHT22;18309;43.658;1.312;2024-02-21T07:04:40;6.60;99.90
31729;DHT22;18309;43.658;1.312;2024-02-21T07:07:06;6.60;99.90
31729;DHT22;18309;43.658;1.312;2024-02-21T07:09:31;6.60;99.90
31729;DHT22;18309;43.658;1.312;2024-02-21T07:12:00;6.60;99.90
31729;DHT22;18309;43.658;1.312;2024-02-21T07:14:28;6.60;99.90
31729;DHT22;18309;43.658;1.312;2024-02-21T07:16:54;6.30;99.90
31729;DHT22;18309;43.658;1.312;2024-02-21T07:19:20;6.10;99.90
31729;DHT22;18309;43.658;1.312;2024-02-21T07:21:45;6.00;99.90
31729;DHT22;18309;43.658;1.312;2024-02-21T07:24:11;5.90;99.90
31729;DHT22;18309;43.658;1.312;2024-02-21T07:26:41;5.70;99.90
31729;DHT22;18309;43.658;1.312;2024-02-21T07:29:07;5.60;99.90
31729;DHT22;18309;43.658;1.312;2024-02-21T07:31:41;5.60;99.90
31729;DHT22;18309;43.658;1.312;2024-02-21T07:34:07;5.70;99.90
31729;DHT22;18309;43.658;1.312;2024-02-21T07:36:33;5.70;99.90
31729;DHT22;18309;43.658;1.312;2024-02-21T07:38:59;5.80;99.90
31729;DHT22;18309;43.658;1.312;2024-02-21T07:41:27;5.80;99.90
31729;DHT22;18309;43.658;1.312;2024-02-21T07:43:55;6.00;99.90
31729;DHT22;18309;43.658;1.312;2024-02-21T07:46:21;5.90;99.90
31729;DHT22;18309;43.658;1.312;2024-02-21T07:48:47;6.00;99.90
31729;DHT22;18309;43.658;1.312;2024-02-21T07:51:13;6.10;99.90
31729;DHT22;18309;43.658;1.312;2024-02-21T07:53:41;6.10;99.90
31729;DHT22;18309;43.658;1.312;2024-02-21T07:56:13;6.20;99.90
31729;DHT22;18309;43.658;1.312;2024-02-21T07:58:40;6.30;99.90
31729;DHT22;18309;43.658;1.312;2024-02-21T08:01:05;6.20;99.90
31729;DHT22;18309;43.658;1.312;2024-02-21T08:03:31;6.20;99.90
31729;DHT22;18309;43.658;1.312;2024-02-21T08:05:57;6.20;99.90
31729;DHT22;18309;43.658;1.312;2024-02-21T08:08:23;6.10;99.90
31729;DHT22;18309;43.658;1.312;2024-02-21T08:10:52;6.10;99.90
31729;DHT22;18309;43.658;1.312;2024-02-21T08:13:18;6.10;99.90
31729;DHT22;18309;43.658;1.312;2024-02-21T08:15:43;6.20;99.90
31729;DHT22;18309;43.658;1.312;2024-02-21T08:18:09;6.20;99.90
31729;DHT22;18309;43.658;1.312;2024-02-21T08:20:35;6.30;99.90
31729;DHT22;18309;43.658;1.312;2024-02-21T08:23:01;6.30;99.90
31729;DHT22;18309;43.658;1.312;2024-02-21T08:25:27;6.40;99.90
31729;DHT22;18309;43.658;1.312;2024-02-21T08:27:58;6.40;99.90
31729;DHT22;18309;43.658;1.312;2024-02-21T08:30:24;6.50;99.90
31729;DHT22;18309;43.658;1.312;2024-02-21T08:32:49;6.40;99.90
31729;DHT22;18309;43.658;1.312;2024-02-21T08:35:15;6.30;99.90
31729;DHT22;18309;43.658;1.312;2024-02-21T08:37:44;6.30;99.90
31729;DHT22;18309;43.658;1.312;2024-02-21T08:40:10;6.30;99.90
31729;DHT22;18309;43.658;1.312;2024-02-21T08:42:36;6.40;99.90
31729;DHT22;18309;43.658;1.312;2024-02-21T08:45:04;6.50;99.90
31729;DHT22;18309;43.658;1.312;2024-02-21T08:47:30;6.60;99.90
31729;DHT22;18309;43.658;1.312;2024-02-21T08:49:56;6.50;99.90
31729;DHT22;18309;43.658;1.312;2024-02-21T08:52:21;6.60;99.90
31729;DHT22;18309;43.658;1.312;2024-02-21T08:54:47;6.70;99.90
31729;DHT22;18309;43.658;1.312;2024-02-21T08:57:13;6.80;99.90
31729;DHT22;18309;43.658;1.312;2024-02-21T08:59:40;6.90;99.90
31729;DHT22;18309;43.658;1.312;2024-02-21T09:02:05;6.90;99.90
31729;DHT22;18309;43.658;1.312;2024-02-21T09:04:32;7.00;99.90
31729;DHT22;18309;43.658;1.312;2024-02-21T09:06:58;7.10;99.90
31729;DHT22;18309;43.658;1.312;2024-02-21T09:09:24;7.30;99.90
31729;DHT22;18309;43.658;1.312;2024-02-21T09:11:50;7.40;99.90
31729;DHT22;18309;43.658;1.312;2024-02-21T09:14:16;7.50;99.90
31729;DHT22;18309;43.658;1.312;2024-02-21T09:16:42;7.60;99.90
31729;DHT22;18309;43.658;1.312;2024-02-21T09:19:07;7.80;99.90
31729;DHT22;18309;43.658;1.312;2024-02-21T09:21:38;8.00;99.90
31729;DHT22;18309;43.658;1.312;2024-02-21T09:24:07;8.10;99.90
31729;DHT22;18309;43.658;1.312;2024-02-21T09:26:33;8.30;99.90
31729;DHT22;18309;43.658;1.312;2024-02-21T09:28:59;8.40;99.90
31729;DHT22;18309;43.658;1.312;2024-02-21T09:31:25;8.40;99.90
31729;DHT22;18309;43.658;1.312;2024-02-21T09:33:51;8.50;99.90
31729;DHT22;18309;43.658;1.312;2024-02-21T09:36:16;8.50;99.90
31729;DHT22;18309;43.658;1.312;2024-02-21T09:38:42;8.60;99.90
31729;DHT22;18309;43.658;1.312;2024-02-21T09:41:18;8.70;99.90
31729;DHT22;18309;43.658;1.312;2024-02-21T09:43:44;8.80;99.90
31729;DHT22;18309;43.658;1.312;2024-02-21T09:46:17;8.90;99.90
31729;DHT22;18309;43.658;1.312;2024-02-21T09:51:41;9.20;99.90
31729;DHT22;18309;43.658;1.312;2024-02-21T09:54:08;9.30;99.90
31729;DHT22;18309;43.658;1.312;2024-02-21T09:56:33;9.30;99.90
31729;DHT22;18309;43.658;1.312;2024-02-21T09:59:01;9.50;99.90
31729;DHT22;18309;43.658;1.312;2024-02-21T10:01:30;9.60;99.90
31729;DHT22;18309;43.658;1.312;2024-02-21T10:03:57;9.60;99.90
31729;DHT22;18309;43.658;1.312;2024-02-21T10:06:22;9.70;99.90
31729;DHT22;18309;43.658;1.312;2024-02-21T10:08:55;9.80;99.90
31729;DHT22;18309;43.658;1.312;2024-02-21T10:11:24;9.90;99.90
31729;DHT22;18309;43.658;1.312;2024-02-21T10:13:50;9.90;99.90
31729;DHT22;18309;43.658;1.312;2024-02-21T10:16:16;10.10;99.90
31729;DHT22;18309;43.658;1.312;2024-02-21T10:18:42;10.30;99.90
31729;DHT22;18309;43.658;1.312;2024-02-21T10:21:08;10.50;99.90
31729;DHT22;18309;43.658;1.312;2024-02-21T10:23:48;10.70;99.90
31729;DHT22;18309;43.658;1.312;2024-02-21T10:26:15;10.90;99.90
31729;DHT22;18309;43.658;1.312;2024-02-21T10:28:41;11.00;99.90
31729;DHT22;18309;43.658;1.312;2024-02-21T10:31:11;11.10;99.90
31729;DHT22;18309;43.658;1.312;2024-02-21T10:33:38;11.10;99.90
31729;DHT22;18309;43.658;1.312;2024-02-21T10:36:07;11.10;99.90
31729;DHT22;18309;43.658;1.312;2024-02-21T10:38:35;11.20;99.90
31729;DHT22;18309;43.658;1.312;2024-02-21T10:41:01;11.20;99.90
31729;DHT22;18309;43.658;1.312;2024-02-21T10:43:33;11.30;99.90
31729;DHT22;18309;43.658;1.312;2024-02-21T10:46:03;11.30;99.90
31729;DHT22;18309;43.658;1.312;2024-02-21T10:48:45;11.30;99.90
31729;DHT22;18309;43.658;1.312;2024-02-21T10:51:17;11.40;99.90
31729;DHT22;18309;43.658;1.312;2024-02-21T10:56:46;11.50;99.90
31729;DHT22;18309;43.658;1.312;2024-02-21T10:59:13;11.60;99.90
31729;DHT22;18309;43.658;1.312;2024-02-21T11:01:39;11.70;99.90
31729;DHT22;18309;43.658;1.312;2024-02-21T11:04:10;11.70;99.90
31729;DHT22;18309;43.658;1.312;2024-02-21T11:06:40;11.80;99.90
31729;DHT22;18309;43.658;1.312;2024-02-21T11:09:07;11.90;99.90
31729;DHT22;18309;43.658;1.312;2024-02-21T11:11:38;11.90;99.90
31729;DHT22;18309;43.658;1.312;2024-02-21T11:14:08;12.00;99.90
31729;DHT22;18309;43.658;1.312;2024-02-21T11:16:41;12.00;99.90
31729;DHT22;18309;43.658;1.312;2024-02-21T11:19:09;12.10;99.90
31729;DHT22;18309;43.658;1.312;2024-02-21T11:21:37;12.20;99.90
31729;DHT22;18309;43.658;1.312;2024-02-21T11:24:03;12.20;99.90
31729;DHT22;18309;43.658;1.312;2024-02-21T11:26:30;12.30;99.90
31729;DHT22;18309;43.658;1.312;2024-02-21T11:29:00;12.30;99.90
31729;DHT22;18309;43.658;1.312;2024-02-21T11:31:26;12.40;99.90
31729;DHT22;18309;43.658;1.312;2024-02-21T11:33:52;12.50;99.90
31729;DHT22;18309;43.658;1.312;2024-02-21T11:36:25;12.60;99.90
31729;DHT22;18309;43.658;1.312;2024-02-21T11:38:52;12.70;99.90
31729;DHT22;18309;43.658;1.312;2024-02-21T11:41:18;12.80;99.90
31729;DHT22;18309;43.658;1.312;2024-02-21T11:43:44;12.90;99.90
31729;DHT22;18309;43.658;1.312;2024-02-21T11:46:10;13.00;99.90
31729;DHT22;18309;43.658;1.312;2024-02-21T11:48:36;13.00;99.90
31729;DHT22;18309;43.658;1.312;2024-02-21T11:51:03;13.10;99.90
31729;DHT22;18309;43.658;1.312;2024-02-21T11:53:30;13.20;99.90
31729;DHT22;18309;43.658;1.312;2024-02-21T11:55:56;13.20;99.90
31729;DHT22;18309;43.658;1.312;2024-02-21T11:58:22;13.30;99.90
31729;DHT22;18309;43.658;1.312;2024-02-21T12:00:48;13.40;99.90
31729;DHT22;18309;43.658;1.312;2024-02-21T12:03:14;13.50;99.90
31729;DHT22;18309;43.658;1.312;2024-02-21T12:05:41;13.60;99.90
31729;DHT22;18309;43.658;1.312;2024-02-21T12:08:07;13.70;99.90
31729;DHT22;18309;43.658;1.312;2024-02-21T12:10:35;13.70;99.90
31729;DHT22;18309;43.658;1.312;2024-02-21T12:13:11;13.80;99.90
31729;DHT22;18309;43.658;1.312;2024-02-21T12:15:38;13.80;99.90
31729;DHT22;18309;43.658;1.312;2024-02-21T12:18:04;13.80;99.90
31729;DHT22;18309;43.658;1.312;2024-02-21T12:20:30;13.90;99.90
31729;DHT22;18309;43.658;1.312;2024-02-21T12:23:00;14.00;99.90
31729;DHT22;18309;43.658;1.312;2024-02-21T12:25:26;14.10;99.90
31729;DHT22;18309;43.658;1.312;2024-02-21T12:27:52;14.10;99.90
31729;DHT22;18309;43.658;1.312;2024-02-21T12:30:19;14.20;99.90
31729;DHT22;18309;43.658;1.312;2024-02-21T12:32:45;14.30;99.90
31729;DHT22;18309;43.658;1.312;2024-02-21T12:35:11;14.30;99.90
31729;DHT22;18309;43.658;1.312;2024-02-21T12:37:37;14.30;99.90
31729;DHT22;18309;43.658;1.312;2024-02-21T12:40:06;14.40;99.90
31729;DHT22;18309;43.658;1.312;2024-02-21T12:42:33;14.40;99.90
31729;DHT22;18309;43.658;1.312;2024-02-21T12:44:59;14.40;99.90
31729;DHT22;18309;43.658;1.312;2024-02-21T12:47:26;14.40;99.90
31729;DHT22;18309;43.658;1.312;2024-02-21T12:49:52;14.50;99.90
31729;DHT22;18309;43.658;1.312;2024-02-21T12:52:18;14.40;99.90
31729;DHT22;18309;43.658;1.312;2024-02-21T12:54:44;14.50;99.90
31729;DHT22;18309;43.658;1.312;2024-02-21T12:57:10;14.50;99.90
31729;DHT22;18309;43.658;1.312;2024-02-21T12:59:35;14.60;99.90
31729;DHT22;18309;43.658;1.312;2024-02-21T13:02:01;14.60;99.90
31729;DHT22;18309;43.658;1.312;2024-02-21T13:04:27;14.70;99.90
31729;DHT22;18309;43.658;1.312;2024-02-21T13:06:53;14.70;99.90
31729;DHT22;18309;43.658;1.312;2024-02-21T13:09:20;14.80;99.90
31729;DHT22;18309;43.658;1.312;2024-02-21T13:11:46;14.90;99.90
31729;DHT22;18309;43.658;1.312;2024-02-21T13:14:12;15.00;99.90
31729;DHT22;18309;43.658;1.312;2024-02-21T13:16:38;15.10;99.90
31729;DHT22;18309;43.658;1.312;2024-02-21T13:19:07;15.20;99.90
31729;DHT22;18309;43.658;1.312;2024-02-21T13:21:36;15.30;99.90
31729;DHT22;18309;43.658;1.312;2024-02-21T13:24:02;15.40;99.90
31729;DHT22;18309;43.658;1.312;2024-02-21T13:26:27;15.50;99.90
31729;DHT22;18309;43.658;1.312;2024-02-21T13:28:53;15.60;99.90
31729;DHT22;18309;43.658;1.312;2024-02-21T13:31:19;15.50;99.90
31729;DHT22;18309;43.658;1.312;2024-02-21T13:33:45;15.60;99.90
31729;DHT22;18309;43.658;1.312;2024-02-21T13:36:11;15.60;99.90
31729;DHT22;18309;43.658;1.312;2024-02-21T13:38:37;15.80;99.90
31729;DHT22;18309;43.658;1.312;2024-02-21T13:41:07;15.80;99.90
31729;DHT22;18309;43.658;1.312;2024-02-21T13:43:33;15.90;99.90
31729;DHT22;18309;43.658;1.312;2024-02-21T13:46:00;16.00;99.90
31729;DHT22;18309;43.658;1.312;2024-02-21T13:48:28;16.10;99.90
31729;DHT22;18309;43.658;1.312;2024-02-21T13:50:54;16.10;99.90
31729;DHT22;18309;43.658;1.312;2024-02-21T13:53:20;16.20;99.90
31729;DHT22;18309;43.658;1.312;2024-02-21T13:55:47;16.30;99.90
31729;DHT22;18309;43.658;1.312;2024-02-21T13:58:12;16.10;99.90
31729;DHT22;18309;43.658;1.312;2024-02-21T14:00:38;16.20;99.90
31729;DHT22;18309;43.658;1.312;2024-02-21T14:03:04;16.20;99.90
31729;DHT22;18309;43.658;1.312;2024-02-21T14:05:30;16.40;99.90
31729;DHT22;18309;43.658;1.312;2024-02-21T14:07:55;16.40;99.90
31729;DHT22;18309;43.658;1.312;2024-02-21T14:10:22;16.40;99.90
31729;DHT22;18309;43.658;1.312;2024-02-21T14:12:47;16.40;99.90
31729;DHT22;18309;43.658;1.312;2024-02-21T14:15:14;16.40;99.90
31729;DHT22;18309;43.658;1.312;2024-02-21T14:17:40;16.50;99.90
31729;DHT22;18309;43.658;1.312;2024-02-21T14:20:07;16.50;99.90
31729;DHT22;18309;43.658;1.312;2024-02-21T14:22:33;16.40;99.90
31729;DHT22;18309;43.658;1.312;2024-02-21T14:25:00;16.20;99.90
31729;DHT22;18309;43.658;1.312;2024-02-21T14:27:26;16.10;99.90
31729;DHT22;18309;43.658;1.312;2024-02-21T14:29:51;16.00;99.90
31729;DHT22;18309;43.658;1.312;2024-02-21T14:32:18;15.90;99.90
31729;DHT22;18309;43.658;1.312;2024-02-21T14:34:43;15.90;99.90
31729;DHT22;18309;43.658;1.312;2024-02-21T14:37:09;15.90;99.90
31729;DHT22;18309;43.658;1.312;2024-02-21T14:39:35;15.80;99.90
31729;DHT22;18309;43.658;1.312;2024-02-21T14:42:01;15.80;99.90
31729;DHT22;18309;43.658;1.312;2024-02-21T14:44:26;15.80;99.90
31729;DHT22;18309;43.658;1.312;2024-02-21T14:46:52;15.80;99.90
31729;DHT22;18309;43.658;1.312;2024-02-21T14:49:18;15.80;99.90
31729;DHT22;18309;43.658;1.312;2024-02-21T14:51:47;15.80;99.90
31729;DHT22;18309;43.658;1.312;2024-02-21T14:54:13;15.80;99.90
31729;DHT22;18309;43.658;1.312;2024-02-21T14:56:38;15.70;99.90
31729;DHT22;18309;43.658;1.312;2024-02-21T14:59:05;15.80;99.90
31729;DHT22;18309;43.658;1.312;2024-02-21T15:01:36;15.80;99.90
31729;DHT22;18309;43.658;1.312;2024-02-21T15:04:03;15.80;99.90
31729;DHT22;18309;43.658;1.312;2024-02-21T15:06:29;15.80;99.90
31729;DHT22;18309;43.658;1.312;2024-02-21T15:08:57;15.80;99.90
31729;DHT22;18309;43.658;1.312;2024-02-21T15:11:23;15.80;99.90
31729;DHT22;18309;43.658;1.312;2024-02-21T15:13:49;15.80;99.90
31729;DHT22;18309;43.658;1.312;2024-02-21T15:16:14;15.80;99.90
31729;DHT22;18309;43.658;1.312;2024-02-21T15:18:41;15.80;99.90
31729;DHT22;18309;43.658;1.312;2024-02-21T15:21:07;15.80;99.90
31729;DHT22;18309;43.658;1.312;2024-02-21T15:23:36;15.80;99.90
31729;DHT22;18309;43.658;1.312;2024-02-21T15:26:01;15.90;99.90
31729;DHT22;18309;43.658;1.312;2024-02-21T15:28:27;15.90;99.90
31729;DHT22;18309;43.658;1.312;2024-02-21T15:30:54;15.90;99.90
31729;DHT22;18309;43.658;1.312;2024-02-21T15:33:20;15.90;99.90
31729;DHT22;18309;43.658;1.312;2024-02-21T15:35:46;16.00;99.90
31729;DHT22;18309;43.658;1.312;2024-02-21T15:38:11;16.00;99.90
31729;DHT22;18309;43.658;1.312;2024-02-21T15:40:37;16.00;99.90